Pine Bush, New York
Current Conditions -  °F | °C
As of 3:54 AM on Friday 24 Oct 2014 (Local Time) from KMGJ Reporting Station
Light Rain Light Rain  
Wind Chill:   Ceiling: 5000
Heat Index:   Visibility: 10mi
Dew Point:   Wind: 6mph
Humidity: 77%   Direction: 290°WNW
Pressure: 29.78"   Gusts: NA
Location:  41.61°N, 74.3°W
Report Text: KMGJ 240754Z AUTO 29005KT 10SM -RA BKN050 09/06 A2978 RMK AO2 RAB47 SLP086 P0000 T00940056 TSNO
Loading
Personal Weather Stations






























Interactive Weather Map
Tropical Storm Tracking
New forecast layout! Learn more

10-Day Weather Forecast

Advertisements
Track Severe Weather on mobile